WetterOnline ( https://www.wetteronline.ch )

Wetter aktuell Würzburg

Aktuelles Wetter: Würzburg (272m)

6-stündlich | Neueste Meldungen
Ortszeit Temperatur Wetter
So, 15.09. 8:00 10.7° C fast wolkenlos
So, 15.09. 2:00 13.4° C wolkenlos
Sa, 14.09. 20:00 20.5° C wolkig
Sa, 14.09. 14:00 22.1° C wolkenlos
Sa, 14.09. 8:00 13.0° C wolkig
Sa, 14.09. 2:00 14.8° C leicht bewölkt
Fr, 13.09. 20:00 20.0° C fast wolkenlos
Fr, 13.09. 14:00 22.2° C leicht bewölkt
Ortszeit Temperatur Wetter
So, 15.09. 12:30 23.6° C wolkig
So, 15.09. 12:20 23.6° C wolkig
So, 15.09. 12:10 23.1° C wolkig
So, 15.09. 12:00 22.1° C leicht bewölkt
So, 15.09. 11:50 22.1° C wolkig
So, 15.09. 11:40 21.9° C wolkig
So, 15.09. 11:30 20.0° C leicht bewölkt
So, 15.09. 11:00 18.8° C wolkenlos
So, 15.09. 10:30 16.9° C leicht bewölkt
So, 15.09. 10:00 15.5° C leicht bewölkt
So, 15.09. 9:30 14.0° C wolkig
Ortszeit Relative Feuchte Sichtweite
So, 15.09. 8:00 86% 22 km
So, 15.09. 2:00 78% 35 km
Sa, 14.09. 20:00 51% 65 km
Sa, 14.09. 14:00 46% 40 km
Sa, 14.09. 8:00 77% 65 km
Sa, 14.09. 2:00 85% 45 km
Fr, 13.09. 20:00 65% 70 km
Fr, 13.09. 14:00 55% 70 km
Ortszeit Relative Feuchte Sichtweite
So, 15.09. 12:30 49% 40 km
So, 15.09. 12:20 49% -
So, 15.09. 12:10 48% -
So, 15.09. 12:00 53% 40 km
So, 15.09. 11:50 53% -
So, 15.09. 11:40 53% -
So, 15.09. 11:30 57% 50 km
So, 15.09. 11:00 59% 30 km
So, 15.09. 10:30 65% 35 km
So, 15.09. 10:00 67% 35 km
So, 15.09. 9:30 71% 45 km
Ortszeit Niederschlagsmenge Niederschlagsart
So, 15.09. 8:00 0.0 l/m2 in 12 Std. -
So, 15.09. 2:00 0.0 l/m2 in 6 Std. -
Sa, 14.09. 20:00 0.0 l/m2 in 12 Std. -
Sa, 14.09. 14:00 0.0 l/m2 in 6 Std. -
Sa, 14.09. 8:00 0.0 l/m2 in 12 Std. -
Sa, 14.09. 2:00 0.0 l/m2 in 6 Std. -
Fr, 13.09. 20:00 0.0 l/m2 in 12 Std. -
Fr, 13.09. 14:00 0.0 l/m2 in 6 Std. -
Ortszeit Niederschlagsmenge Niederschlagsart
So, 15.09. 12:30 0.0 l/m2 in 1 Std. -
So, 15.09. 12:20 keine Meldung -
So, 15.09. 12:10 keine Meldung -
So, 15.09. 12:00 0.0 l/m2 in 1 Std. -
So, 15.09. 11:50 keine Meldung -
So, 15.09. 11:40 keine Meldung -
So, 15.09. 11:30 0.0 l/m2 in 1 Std. -
So, 15.09. 11:00 0.0 l/m2 in 1 Std. -
So, 15.09. 10:30 0.0 l/m2 in 1 Std. -
So, 15.09. 10:00 0.0 l/m2 in 1 Std. -
So, 15.09. 9:30 0.0 l/m2 in 1 Std. -
Ortszeit Stärke Spitze Richtung
km/h Bft. km/h Grad Sektor
So, 15.09. 8:00 4 1 14 350° N
So, 15.09. 2:00 11 2 15 30° NO
Sa, 14.09. 20:00 7 2 20 50° NO
Sa, 14.09. 14:00 9 2 20 70° O
Sa, 14.09. 8:00 9 2 28 50° NO
Sa, 14.09. 2:00 9 2 15 30° NO
Fr, 13.09. 20:00 7 2 32 340° N
Fr, 13.09. 14:00 17 3 30 320° NW
Ortszeit Stärke Spitze Richtung
km/h Bft. km/h Grad Sektor
So, 15.09. 12:30 6 1 13 250° W
So, 15.09. 12:20 6 1 - 250° W
So, 15.09. 12:10 7 2 - 220° SW
So, 15.09. 12:00 6 1 11 210° SW
So, 15.09. 11:50 6 1 - 210° SW
So, 15.09. 11:40 6 1 - 190° S
So, 15.09. 11:30 7 2 11 180° S
So, 15.09. 11:00 7 2 11 190° S
So, 15.09. 10:30 6 1 9 160° S
So, 15.09. 10:00 6 1 7 200° S
So, 15.09. 9:30 4 1 7 250° W
Ortszeit Untergrenze Bedeckung Gattung
total tief tief mittel hoch
So, 15.09. 8:00 12000 m 2/8 0/8 - - -
So, 15.09. 2:00 - 0/8 0/8 - - -
Sa, 14.09. 20:00 9000 m 8/8 0/8 - - -
Sa, 14.09. 14:00 - 0/8 0/8 - - -
Sa, 14.09. 8:00 9000 m 8/8 0/8 - - -
Sa, 14.09. 2:00 1800 m 1/8 4/8 - - -
Fr, 13.09. 20:00 9000 m 1/8 0/8 - - -
Fr, 13.09. 14:00 1020 m 4/8 4/8 - - -
Ortszeit Bedeckungsgrad in Achtel und Wolkenuntergrenze
So, 15.09. 12:30 8(12000m)
So, 15.09. 12:20 8(12000m)
So, 15.09. 12:10 8(12000m)
So, 15.09. 12:00 8(12000m)
So, 15.09. 11:50 8(12000m)
So, 15.09. 11:40 8(12000m)
So, 15.09. 11:30 5(12000m)
So, 15.09. 11:00 keine Wolken
So, 15.09. 10:30 3(1110m) 2(12000m)
So, 15.09. 10:00 6(10500m) 7(10500m)
So, 15.09. 9:30 8(10500m)
Ortszeit Luftdruck NN (hPa) Tendenz (hPa in 3 Std.)
So, 15.09. 8:00 1026 - 0,5
So, 15.09. 2:00 1028 - 1,0
Sa, 14.09. 20:00 1028 - 0,5
Sa, 14.09. 14:00 1031 - 1,2
Sa, 14.09. 8:00 1034 + 0,4
Sa, 14.09. 2:00 1033 0,0
Fr, 13.09. 20:00 1032 + 0,1
Fr, 13.09. 14:00 1031 - 0,4
Ortszeit Luftdruck NN (hPa) Tendenz (hPa in 3 Std.)
So, 15.09. 12:30 1024 - 1,2
So, 15.09. 12:20 1024 keine Meldung
So, 15.09. 12:10 1024 keine Meldung
So, 15.09. 12:00 1024 - 0,9
So, 15.09. 11:50 1024 keine Meldung
So, 15.09. 11:40 1024 keine Meldung
So, 15.09. 11:30 1025 - 0,6
So, 15.09. 11:00 1025 - 0,3
So, 15.09. 10:30 1025 - 0,2
So, 15.09. 10:00 1026 0,0
So, 15.09. 9:30 1026 + 0,1
Ortszeit Schneehöhe (cm)
So, 15.09. 8:00 -
So, 15.09. 2:00 -
Sa, 14.09. 20:00 -
Sa, 14.09. 14:00 -
Sa, 14.09. 8:00 -
Sa, 14.09. 2:00 -
Fr, 13.09. 20:00 -
Fr, 13.09. 14:00 -
Ortszeit Schneehöhe (cm)
So, 15.09. 12:30 -
So, 15.09. 12:20 -
So, 15.09. 12:10 -
So, 15.09. 12:00 -
So, 15.09. 11:50 -
So, 15.09. 11:40 -
So, 15.09. 11:30 -
So, 15.09. 11:00 -
So, 15.09. 10:30 -
So, 15.09. 10:00 -
So, 15.09. 9:30 -
Link zu dieser Seite / Seite empfehlen

Das Wetter in ...